createdAt,value
2018-01-02T00:01:18.110Z,0
2018-01-02T00:02:39.781Z,0
2018-01-02T00:04:01.910Z,0
2018-01-02T00:05:23.272Z,0
2018-01-02T00:06:45.139Z,0
2018-01-02T00:08:06.775Z,0
2018-01-02T00:09:28.665Z,0
2018-01-02T00:10:50.379Z,0
2018-01-02T00:12:12.296Z,0
2018-01-02T00:13:34.491Z,0
2018-01-02T00:14:56.384Z,0
2018-01-02T00:16:17.773Z,0
2018-01-02T00:17:39.649Z,0
2018-01-02T00:19:01.526Z,0
2018-01-02T00:20:22.847Z,0
2018-01-02T00:21:44.607Z,0
2018-01-02T00:23:05.708Z,0
2018-01-02T00:24:27.386Z,0
2018-01-02T00:25:49.247Z,0
2018-01-02T00:27:11.127Z,0
2018-01-02T00:28:32.990Z,0
2018-01-02T00:29:54.822Z,0
2018-01-02T00:31:17.022Z,0
2018-01-02T00:32:38.736Z,0
2018-01-02T00:34:00.630Z,0
2018-01-02T00:35:22.856Z,0
2018-01-02T00:36:45.012Z,0
2018-01-02T00:38:06.922Z,0
2018-01-02T00:39:28.281Z,0
2018-01-02T00:40:49.964Z,0
2018-01-02T00:42:11.310Z,0
2018-01-02T00:43:33.440Z,0
2018-01-02T00:44:55.183Z,0
2018-01-02T00:46:17.154Z,0
2018-01-02T00:47:38.555Z,0
2018-01-02T00:49:00.448Z,0
2018-01-02T00:50:22.031Z,0
2018-01-02T00:51:43.975Z,0
2018-01-02T00:53:05.593Z,0
2018-01-02T00:54:27.465Z,0
2018-01-02T00:55:49.114Z,0
2018-01-02T00:57:10.722Z,0
2018-01-02T00:58:31.825Z,0
2018-01-02T00:59:52.913Z,0
2018-01-02T01:01:14.845Z,0
2018-01-02T01:02:36.694Z,0
2018-01-02T01:03:58.563Z,0
2018-01-02T01:05:20.695Z,0
2018-01-02T01:06:42.613Z,0
2018-01-02T01:08:04.368Z,0
2018-01-02T01:09:25.699Z,0
2018-01-02T01:10:46.801Z,0
2018-01-02T01:12:08.678Z,0
2018-01-02T01:13:30.569Z,0
2018-01-02T01:14:52.426Z,0
2018-01-02T01:16:14.546Z,0
2018-01-02T01:17:36.427Z,0
2018-01-02T01:18:58.276Z,0
2018-01-02T01:20:19.932Z,0
2018-01-02T01:21:41.621Z,0
2018-01-02T01:23:03.220Z,0
2018-01-02T01:24:25.506Z,0
2018-01-02T01:25:47.945Z,0
2018-01-02T01:27:09.778Z,0
2018-01-02T01:28:31.971Z,0
2018-01-02T01:29:53.584Z,0
2018-01-02T01:31:15.468Z,0
2018-01-02T01:32:37.145Z,0
2018-01-02T01:33:58.788Z,0
2018-01-02T01:35:20.847Z,0
2018-01-02T01:36:42.975Z,0
2018-01-02T01:38:04.799Z,0
2018-01-02T01:39:26.649Z,0
2018-01-02T01:40:48.913Z,0
2018-01-02T01:42:11.030Z,0
2018-01-02T01:43:32.647Z,0
2018-01-02T01:44:54.533Z,0
2018-01-02T01:46:16.145Z,0
2018-01-02T01:47:38.009Z,0
2018-01-02T01:48:59.916Z,0
2018-01-02T01:50:21.281Z,0
2018-01-02T01:51:42.603Z,0
2018-01-02T01:53:04.493Z,0
2018-01-02T01:54:26.083Z,0
2018-01-02T01:55:48.296Z,0
2018-01-02T01:57:10.366Z,0
2018-01-02T01:58:32.466Z,0
2018-01-02T01:59:54.057Z,0
2018-01-02T02:01:15.987Z,0
2018-01-02T02:02:37.756Z,0
2018-01-02T02:03:59.684Z,0
2018-01-02T02:05:21.801Z,0
2018-01-02T02:06:43.463Z,0
2018-01-02T02:08:05.674Z,0
2018-01-02T02:09:27.536Z,0
2018-01-02T02:10:49.399Z,0
2018-01-02T02:12:11.237Z,0
2018-01-02T02:13:33.106Z,0
2018-01-02T02:14:54.496Z,0
2018-01-02T02:16:16.627Z,0
2018-01-02T02:17:37.953Z,0
2018-01-02T02:19:00.303Z,0
2018-01-02T02:20:21.630Z,0
2018-01-02T02:21:43.525Z,0
2018-01-02T02:23:04.858Z,0
2018-01-02T02:24:26.474Z,0
2018-01-02T02:25:48.083Z,0
2018-01-02T02:27:09.779Z,0
2018-01-02T02:28:31.941Z,0
2018-01-02T02:29:53.676Z,0
2018-01-02T02:31:15.527Z,0
2018-01-02T02:32:37.388Z,0
2018-01-02T02:33:59.240Z,0
2018-01-02T02:35:21.426Z,0
2018-01-02T02:36:43.033Z,0
2018-01-02T02:38:04.742Z,0
2018-01-02T02:39:26.899Z,0
2018-01-02T02:40:48.796Z,0
2018-01-02T02:42:10.485Z,0
2018-01-02T02:43:31.885Z,0
2018-01-02T02:44:53.833Z,0
2018-01-02T02:46:15.446Z,0
2018-01-02T02:47:37.287Z,0
2018-01-02T02:48:59.186Z,0
2018-01-02T02:50:20.865Z,0
2018-01-02T02:51:42.873Z,0
2018-01-02T02:53:04.556Z,0
2018-01-02T02:54:26.157Z,0
2018-01-02T02:55:48.008Z,0
2018-01-02T02:57:09.968Z,0
2018-01-02T02:58:31.316Z,0
2018-01-02T02:59:53.165Z,0
2018-01-02T03:01:15.040Z,0
2018-01-02T03:02:36.885Z,0
2018-01-02T03:03:58.274Z,0
2018-01-02T03:05:20.137Z,0
2018-01-02T03:06:41.981Z,0
2018-01-02T03:08:03.831Z,0
2018-01-02T03:09:25.407Z,0
2018-01-02T03:10:47.260Z,0
2018-01-02T03:12:08.906Z,0
2018-01-02T03:13:30.504Z,0
2018-01-02T03:14:52.236Z,0
2018-01-02T03:16:13.568Z,0
2018-01-02T03:17:35.445Z,0
2018-01-02T03:18:57.043Z,0
2018-01-02T03:20:18.725Z,0
2018-01-02T03:21:40.315Z,0
2018-01-02T03:23:02.144Z,0
2018-01-02T03:24:23.747Z,0
2018-01-02T03:25:45.584Z,0
2018-01-02T03:27:07.178Z,0
2018-01-02T03:28:29.300Z,0
2018-01-02T03:29:51.224Z,0
2018-01-02T03:31:12.887Z,0
2018-01-02T03:32:35.138Z,0
2018-01-02T03:33:56.738Z,0
2018-01-02T03:35:18.344Z,0
2018-01-02T03:36:39.425Z,0
2018-01-02T03:38:01.015Z,0
2018-01-02T03:39:22.416Z,0
2018-01-02T03:40:43.763Z,0
2018-01-02T03:42:05.624Z,0
2018-01-02T03:43:27.224Z,0
2018-01-02T03:44:49.325Z,0
2018-01-02T03:46:11.438Z,0
2018-01-02T03:47:32.523Z,0
2018-01-02T03:48:54.372Z,0
2018-01-02T03:50:15.965Z,0
2018-01-02T03:51:37.917Z,0
2018-01-02T03:52:59.323Z,0
2018-01-02T03:54:20.926Z,0
2018-01-02T03:55:42.874Z,0
2018-01-02T03:57:04.737Z,0
2018-01-02T03:58:26.315Z,0
2018-01-02T03:59:47.905Z,0
2018-01-02T04:01:09.242Z,0
2018-01-02T04:02:31.366Z,0
2018-01-02T04:03:52.448Z,0
2018-01-02T04:05:14.063Z,0
2018-01-02T04:06:36.174Z,0
2018-01-02T04:07:57.921Z,0
2018-01-02T04:09:19.806Z,0
2018-01-02T04:10:41.394Z,0
2018-01-02T04:12:02.486Z,0
2018-01-02T04:13:24.789Z,0
2018-01-02T04:14:46.265Z,0
2018-01-02T04:16:07.598Z,0
2018-01-02T04:17:29.465Z,0
2018-01-02T04:18:51.046Z,0
2018-01-02T04:20:12.629Z,0
2018-01-02T04:21:34.485Z,0
2018-01-02T04:22:56.325Z,0
2018-01-02T04:24:18.645Z,0
2018-01-02T04:25:39.980Z,0
2018-01-02T04:27:01.416Z,0
2018-01-02T04:28:22.485Z,0
2018-01-02T04:29:44.071Z,0
2018-01-02T04:31:05.684Z,0
2018-01-02T04:32:27.316Z,0
2018-01-02T04:33:49.246Z,0
2018-01-02T04:35:10.888Z,0
2018-01-02T04:36:32.735Z,0
2018-01-02T04:37:54.736Z,0
2018-01-02T04:39:16.631Z,0
2018-01-02T04:40:38.144Z,0
2018-01-02T04:42:00.115Z,0
2018-01-02T04:43:21.965Z,0
2018-01-02T04:44:43.316Z,0
2018-01-02T04:46:05.395Z,0
2018-01-02T04:47:27.486Z,0
2018-01-02T04:48:49.593Z,0
2018-01-02T04:50:11.186Z,0
2018-01-02T04:51:32.905Z,0
2018-01-02T04:52:54.859Z,0
2018-01-02T04:54:16.525Z,0
2018-01-02T04:55:38.393Z,0
2018-01-02T04:56:59.986Z,0
2018-01-02T04:58:21.651Z,0
2018-01-02T04:59:43.248Z,0
2018-01-02T05:01:04.851Z,0
2018-01-02T05:02:26.556Z,0
2018-01-02T05:03:47.896Z,0
2018-01-02T05:05:09.991Z,0
2018-01-02T05:06:31.843Z,0
2018-01-02T05:07:54.053Z,0
2018-01-02T05:09:15.378Z,0
2018-01-02T05:10:36.855Z,0
2018-01-02T05:11:58.825Z,0
2018-01-02T05:13:20.564Z,0
2018-01-02T05:14:41.647Z,0
2018-01-02T05:16:03.270Z,0
2018-01-02T05:17:24.854Z,0
2018-01-02T05:18:46.449Z,0
2018-01-02T05:20:07.776Z,0
2018-01-02T05:21:29.366Z,0
2018-01-02T05:22:51.214Z,0
2018-01-02T05:24:12.439Z,0
2018-01-02T05:25:34.281Z,0
2018-01-02T05:26:56.170Z,0
2018-01-02T05:28:18.026Z,0
2018-01-02T05:29:39.635Z,0
2018-01-02T05:31:01.478Z,0
2018-01-02T05:32:23.343Z,0
2018-01-02T05:33:44.941Z,0
2018-01-02T05:35:06.897Z,0
2018-01-02T05:36:28.516Z,0
2018-01-02T05:37:50.114Z,0
2018-01-02T05:39:11.706Z,0
2018-01-02T05:40:33.312Z,0
2018-01-02T05:41:54.907Z,0
2018-01-02T05:43:16.763Z,0
2018-01-02T05:44:38.633Z,0
2018-01-02T05:46:00.886Z,0
2018-01-02T05:47:23.246Z,0
2018-01-02T05:48:45.161Z,0
2018-01-02T05:50:07.296Z,0
2018-01-02T05:51:29.578Z,0
2018-01-02T05:52:50.937Z,0
2018-01-02T05:54:12.817Z,0
2018-01-02T05:55:34.416Z,0
2018-01-02T05:56:56.004Z,0
2018-01-02T05:58:17.854Z,0
2018-01-02T05:59:39.975Z,0
2018-01-02T06:01:02.077Z,0
2018-01-02T06:02:23.544Z,0
2018-01-02T06:03:45.134Z,0
2018-01-02T06:05:07.014Z,0
2018-01-02T06:06:28.944Z,0
2018-01-02T06:07:50.275Z,0
2018-01-02T06:09:11.848Z,0
2018-01-02T06:10:33.695Z,0
2018-01-02T06:11:55.290Z,0
2018-01-02T06:13:16.889Z,0
2018-01-02T06:14:38.224Z,0
2018-01-02T06:16:00.135Z,0
2018-01-02T06:17:22.291Z,0
2018-01-02T06:18:43.888Z,0
2018-01-02T06:20:05.485Z,0
2018-01-02T06:21:27.578Z,0
2018-01-02T06:22:49.194Z,0
2018-01-02T06:24:11.427Z,0
2018-01-02T06:25:33.024Z,0
2018-01-02T06:26:54.635Z,0
2018-01-02T06:28:16.490Z,0
2018-01-02T06:29:37.843Z,0
2018-01-02T06:30:59.606Z,0
2018-01-02T06:32:21.360Z,0
2018-01-02T06:33:43.552Z,0
2018-01-02T06:35:04.892Z,0
2018-01-02T06:36:26.502Z,0
2018-01-02T06:37:48.355Z,0
2018-01-02T06:39:10.301Z,0
2018-01-02T06:40:32.535Z,0
2018-01-02T06:41:54.127Z,0
2018-01-02T06:43:16.254Z,0
2018-01-02T06:44:38.111Z,0
2018-01-02T06:45:59.991Z,0
2018-01-02T06:47:21.580Z,0
2018-01-02T06:48:43.427Z,0
2018-01-02T06:50:06.444Z,0
2018-01-02T06:51:28.310Z,0
2018-01-02T06:52:49.636Z,0
2018-01-02T06:54:11.544Z,0
2018-01-02T06:55:33.133Z,0
2018-01-02T06:56:55.288Z,0
2018-01-02T06:58:17.463Z,0
2018-01-02T06:59:39.624Z,0
2018-01-02T07:01:01.482Z,0
2018-01-02T07:02:23.347Z,4
2018-01-02T07:03:45.192Z,4
2018-01-02T07:05:07.043Z,0
2018-01-02T07:06:28.634Z,4
2018-01-02T07:07:50.478Z,4
2018-01-02T07:09:12.391Z,8
2018-01-02T07:10:34.234Z,8
2018-01-02T07:11:55.842Z,12
2018-01-02T07:13:17.697Z,12
2018-01-02T07:14:39.611Z,12
2018-01-02T07:16:01.355Z,16
2018-01-02T07:17:22.683Z,20
2018-01-02T07:18:44.112Z,24
2018-01-02T07:20:05.965Z,28
2018-01-02T07:21:27.598Z,32
2018-01-02T07:22:48.796Z,40
2018-01-02T07:24:10.526Z,44
2018-01-02T07:25:32.686Z,56
2018-01-02T07:26:54.397Z,64
2018-01-02T07:28:16.351Z,76
2018-01-02T07:29:37.961Z,88
2018-01-02T07:30:59.601Z,104
2018-01-02T07:32:21.578Z,124
2018-01-02T07:33:43.150Z,144
2018-01-02T07:35:05.015Z,160
2018-01-02T07:36:26.546Z,180
2018-01-02T07:37:48.209Z,208
2018-01-02T07:39:10.422Z,244
2018-01-02T07:40:32.525Z,276
2018-01-02T07:41:53.893Z,308
2018-01-02T07:43:15.592Z,340
2018-01-02T07:44:36.934Z,376
2018-01-02T07:45:59.064Z,408
2018-01-02T07:47:20.664Z,444
2018-01-02T07:48:42.009Z,484
2018-01-02T07:50:04.006Z,516
2018-01-02T07:51:25.606Z,560
2018-01-02T07:52:47.477Z,608
2018-01-02T07:54:08.560Z,668
2018-01-02T07:55:30.677Z,720
2018-01-02T07:56:52.927Z,764
2018-01-02T07:58:15.015Z,816
2018-01-02T07:59:36.681Z,856
2018-01-02T08:00:58.065Z,884
2018-01-02T08:02:19.914Z,920
2018-01-02T08:03:41.762Z,960
2018-01-02T08:05:03.363Z,1004
2018-01-02T08:06:24.779Z,1052
2018-01-02T08:07:46.138Z,1096
2018-01-02T08:09:07.256Z,1148
2018-01-02T08:10:28.594Z,1208
2018-01-02T08:11:50.205Z,1276
2018-01-02T08:13:12.060Z,1332
2018-01-02T08:14:33.912Z,1384
2018-01-02T08:15:55.278Z,1436
2018-01-02T08:17:17.420Z,1480
2018-01-02T08:18:39.306Z,1532
2018-01-02T08:20:00.669Z,1576
2018-01-02T08:21:22.524Z,1616
2018-01-02T08:22:44.441Z,1664
2018-01-02T08:24:06.282Z,1716
2018-01-02T08:25:27.878Z,1760
2018-01-02T08:26:49.714Z,1796
2018-01-02T08:28:11.050Z,1828
2018-01-02T08:29:32.393Z,1864
2018-01-02T08:30:53.999Z,1888
2018-01-02T08:32:15.603Z,1908
2018-01-02T08:33:37.871Z,1976
2018-01-02T08:34:59.474Z,2132
2018-01-02T08:36:21.069Z,2540
2018-01-02T08:37:42.416Z,2660
2018-01-02T08:39:04.270Z,2476
2018-01-02T08:40:25.695Z,2232
2018-01-02T08:41:47.554Z,2176
2018-01-02T08:43:09.372Z,2172
2018-01-02T08:44:31.023Z,2204
2018-01-02T08:45:52.763Z,2280
2018-01-02T08:47:14.114Z,2336
2018-01-02T08:48:35.526Z,2316
2018-01-02T08:49:57.390Z,2308
2018-01-02T08:51:19.053Z,2360
2018-01-02T08:52:40.432Z,2288
2018-01-02T08:54:02.281Z,2084
2018-01-02T08:55:23.906Z,2008
2018-01-02T08:56:45.034Z,2028
2018-01-02T08:58:07.148Z,2076
2018-01-02T08:59:29.253Z,2120
2018-01-02T09:00:50.656Z,2316
2018-01-02T09:02:12.512Z,2464
2018-01-02T09:03:34.114Z,3020
2018-01-02T09:04:56.190Z,3648
2018-01-02T09:06:18.125Z,3128
2018-01-02T09:07:39.722Z,2652
2018-01-02T09:09:01.915Z,2616
2018-01-02T09:10:23.887Z,2744
2018-01-02T09:11:45.819Z,2756
2018-01-02T09:13:07.703Z,2776
2018-01-02T09:14:29.111Z,2724
2018-01-02T09:15:51.096Z,2788
2018-01-02T09:17:13.083Z,2844
2018-01-02T09:18:34.714Z,2884
2018-01-02T09:19:56.318Z,2904
2018-01-02T09:21:18.234Z,2928
2018-01-02T09:22:40.374Z,2944
2018-01-02T09:24:01.708Z,2956
2018-01-02T09:25:23.556Z,2984
2018-01-02T09:26:45.181Z,3024
2018-01-02T09:28:07.040Z,3068
2018-01-02T09:29:28.654Z,3088
2018-01-02T09:30:50.779Z,3076
2018-01-02T09:32:12.971Z,3012
2018-01-02T09:33:34.967Z,2888
2018-01-02T09:34:56.664Z,3020
2018-01-02T09:36:18.560Z,3172
2018-01-02T09:37:40.557Z,3500
2018-01-02T09:39:02.782Z,3216
2018-01-02T09:40:24.143Z,3008
2018-01-02T09:41:45.526Z,2960
2018-01-02T09:43:07.374Z,2952
2018-01-02T09:44:29.246Z,3052
2018-01-02T09:45:51.105Z,3116
2018-01-02T09:47:12.968Z,3228
2018-01-02T09:48:34.969Z,3140
2018-01-02T09:49:57.105Z,3584
2018-01-02T09:51:18.982Z,4416
2018-01-02T09:52:40.340Z,4560
2018-01-02T09:54:01.694Z,4568
2018-01-02T09:55:23.304Z,4464
2018-01-02T09:56:44.917Z,4452
2018-01-02T09:58:06.839Z,4000
2018-01-02T09:59:28.964Z,4156
2018-01-02T10:00:50.317Z,4344
2018-01-02T10:02:12.544Z,4528
2018-01-02T10:03:34.416Z,4388
2018-01-02T10:04:56.164Z,4004
2018-01-02T10:06:17.605Z,4264
2018-01-02T10:07:39.735Z,4288
2018-01-02T10:09:01.609Z,4280
2018-01-02T10:10:23.239Z,4440
2018-01-02T10:11:45.471Z,5588
2018-01-02T10:13:07.425Z,5992
2018-01-02T10:14:28.777Z,5412
2018-01-02T10:15:50.907Z,5128
2018-01-02T10:17:13.059Z,5388
2018-01-02T10:18:34.961Z,5124
2018-01-02T10:19:56.839Z,4824
2018-01-02T10:21:18.731Z,3872
2018-01-02T10:22:40.818Z,3752
2018-01-02T10:24:02.953Z,4064
2018-01-02T10:25:24.685Z,5152
2018-01-02T10:26:46.313Z,6024
2018-01-02T10:28:08.168Z,6300
2018-01-02T10:29:30.253Z,6296
2018-01-02T10:30:52.157Z,6004
2018-01-02T10:32:14.151Z,5156
2018-01-02T10:33:36.289Z,6924
2018-01-02T10:34:57.948Z,5472
2018-01-02T10:36:20.108Z,4300
2018-01-02T10:37:41.814Z,4140
2018-01-02T10:39:03.253Z,3252
2018-01-02T10:40:24.853Z,3800
2018-01-02T10:41:46.694Z,4924
2018-01-02T10:43:08.046Z,5644
2018-01-02T10:44:29.947Z,4840
2018-01-02T10:45:52.117Z,4608
2018-01-02T10:47:14.040Z,4704
2018-01-02T10:48:35.446Z,5820
2018-01-02T10:49:57.633Z,4184
2018-01-02T10:51:18.981Z,4796
2018-01-02T10:52:41.028Z,4652
2018-01-02T10:54:02.895Z,4728
2018-01-02T10:55:25.076Z,5952
2018-01-02T10:56:46.723Z,5392
2018-01-02T10:58:08.725Z,4728
2018-01-02T10:59:30.379Z,4440
2018-01-02T11:00:52.513Z,3872
2018-01-02T11:02:13.858Z,3968
2018-01-02T11:03:35.466Z,3576
2018-01-02T11:04:57.759Z,3724
2018-01-02T11:06:18.844Z,4356
2018-01-02T11:07:40.856Z,4220
2018-01-02T11:09:02.537Z,4492
2018-01-02T11:10:24.452Z,4364
2018-01-02T11:11:46.155Z,3796
2018-01-02T11:13:08.418Z,3544
2018-01-02T11:14:30.383Z,4416
2018-01-02T11:15:51.731Z,4620
2018-01-02T11:17:12.820Z,4832
2018-01-02T11:18:34.814Z,5072
2018-01-02T11:19:56.678Z,5040
2018-01-02T11:21:18.581Z,4524
2018-01-02T11:22:40.287Z,4736
2018-01-02T11:24:02.430Z,5152
2018-01-02T11:25:24.686Z,5276
2018-01-02T11:26:46.878Z,5136
2018-01-02T11:28:08.535Z,5316
2018-01-02T11:29:30.478Z,5700
2018-01-02T11:30:52.110Z,4724
2018-01-02T11:32:13.774Z,4752
2018-01-02T11:33:35.398Z,4360
2018-01-02T11:34:57.268Z,3724
2018-01-02T11:36:18.870Z,3756
2018-01-02T11:37:41.038Z,4168
2018-01-02T11:39:02.748Z,4240
2018-01-02T11:40:25.039Z,3976
2018-01-02T11:41:46.923Z,4600
2018-01-02T11:43:08.502Z,4656
2018-01-02T11:44:30.377Z,3548
2018-01-02T11:45:52.266Z,3512
2018-01-02T11:47:14.174Z,3864
2018-01-02T11:48:36.098Z,4784
2018-01-02T11:49:58.281Z,5080
2018-01-02T11:51:19.885Z,5156
2018-01-02T11:52:41.231Z,5460
2018-01-02T11:54:03.345Z,5360
2018-01-02T11:55:25.384Z,4964
2018-01-02T11:56:46.985Z,4676
2018-01-02T11:58:09.369Z,4700
2018-01-02T11:59:31.640Z,5016
2018-01-02T12:00:53.299Z,4572
2018-01-02T12:02:15.419Z,4636
2018-01-02T12:03:36.780Z,5040
2018-01-02T12:04:58.489Z,4968
2018-01-02T12:06:20.441Z,4592
2018-01-02T12:07:42.045Z,4044
2018-01-02T12:09:03.955Z,3364
2018-01-02T12:10:26.137Z,3200
2018-01-02T12:11:47.275Z,3024
2018-01-02T12:13:08.873Z,3488
2018-01-02T12:14:30.866Z,3520
2018-01-02T12:15:52.729Z,3900
2018-01-02T12:17:15.015Z,4304
2018-01-02T12:18:37.047Z,4508
2018-01-02T12:19:59.189Z,4552
2018-01-02T12:21:20.695Z,4552
2018-01-02T12:22:42.826Z,4708
2018-01-02T12:24:04.195Z,4712
2018-01-02T12:25:26.084Z,4288
2018-01-02T12:26:48.304Z,4148
2018-01-02T12:28:09.918Z,4444
2018-01-02T12:29:31.885Z,4632
2018-01-02T12:30:54.078Z,4888
2018-01-02T12:32:16.215Z,5692
2018-01-02T12:33:38.362Z,4952
2018-01-02T12:34:59.950Z,4288
2018-01-02T12:36:21.295Z,4192
2018-01-02T12:37:43.270Z,4248
2018-01-02T12:39:05.675Z,4340
2018-01-02T12:40:27.558Z,4400
2018-01-02T12:41:49.436Z,4120
2018-01-02T12:43:11.314Z,3948
2018-01-02T12:44:33.504Z,3828
2018-01-02T12:45:55.120Z,3532
2018-01-02T12:47:16.795Z,3744
2018-01-02T12:48:38.692Z,4068
2018-01-02T12:50:00.669Z,4000
2018-01-02T12:51:22.797Z,3400
2018-01-02T12:52:44.683Z,2796
2018-01-02T12:54:06.601Z,2572
2018-01-02T12:55:28.455Z,2740
2018-01-02T12:56:50.428Z,2888
2018-01-02T12:58:12.325Z,3064
2018-01-02T12:59:34.454Z,3200
2018-01-02T13:00:55.907Z,3040
2018-01-02T13:02:17.512Z,3192
2018-01-02T13:03:39.654Z,3332
2018-01-02T13:05:01.514Z,3300
2018-01-02T13:06:23.409Z,3112
2018-01-02T13:07:44.771Z,2828
2018-01-02T13:09:06.199Z,2840
2018-01-02T13:10:28.097Z,2660
2018-01-02T13:11:49.980Z,2696
2018-01-02T13:13:11.839Z,2544
2018-01-02T13:14:33.711Z,2324
2018-01-02T13:15:55.567Z,1936
2018-01-02T13:17:17.468Z,1724
2018-01-02T13:18:39.710Z,1892
2018-01-02T13:20:01.926Z,2116
2018-01-02T13:21:23.604Z,2712
2018-01-02T13:22:45.798Z,3236
2018-01-02T13:24:07.164Z,3036
2018-01-02T13:25:29.075Z,2960
2018-01-02T13:26:51.011Z,2904
2018-01-02T13:28:12.188Z,3056
2018-01-02T13:29:34.125Z,3172
2018-01-02T13:30:56.430Z,3136
2018-01-02T13:32:18.555Z,3144
2018-01-02T13:33:40.154Z,3072
2018-01-02T13:35:01.746Z,3080
2018-01-02T13:36:23.638Z,3168
2018-01-02T13:37:45.568Z,3076
2018-01-02T13:39:07.433Z,2912
2018-01-02T13:40:29.285Z,2920
2018-01-02T13:41:51.143Z,3016
2018-01-02T13:43:12.752Z,3124
2018-01-02T13:44:34.665Z,3100
2018-01-02T13:45:56.703Z,2824
2018-01-02T13:47:18.055Z,2392
2018-01-02T13:48:39.938Z,1988
2018-01-02T13:50:01.156Z,1708
2018-01-02T13:51:23.093Z,1452
2018-01-02T13:52:45.251Z,1436
2018-01-02T13:54:06.842Z,1392
2018-01-02T13:55:28.210Z,1420
2018-01-02T13:56:50.349Z,1288
2018-01-02T13:58:11.703Z,1280
2018-01-02T13:59:33.314Z,1504
2018-01-02T14:00:55.001Z,1636
2018-01-02T14:02:17.239Z,1536
2018-01-02T14:03:39.116Z,1612
2018-01-02T14:05:01.000Z,1760
2018-01-02T14:06:22.694Z,1852
2018-01-02T14:07:44.644Z,1808
2018-01-02T14:09:06.514Z,1680
2018-01-02T14:10:28.632Z,1592
2018-01-02T14:11:50.510Z,1548
2018-01-02T14:13:12.112Z,1452
2018-01-02T14:14:33.701Z,1164
2018-01-02T14:15:55.574Z,1168
2018-01-02T14:17:17.491Z,1220
2018-01-02T14:18:39.376Z,1152
2018-01-02T14:20:01.059Z,1112
2018-01-02T14:21:22.665Z,1292
2018-01-02T14:22:44.815Z,1252
2018-01-02T14:24:06.944Z,1288
2018-01-02T14:25:28.855Z,1128
2018-01-02T14:26:50.901Z,1028
2018-01-02T14:28:12.780Z,936
2018-01-02T14:29:34.898Z,788
2018-01-02T14:30:56.501Z,684
2018-01-02T14:32:18.096Z,660
2018-01-02T14:33:40.248Z,700
2018-01-02T14:35:02.389Z,828
2018-01-02T14:36:24.052Z,748
2018-01-02T14:37:45.922Z,536
2018-01-02T14:39:07.780Z,456
2018-01-02T14:40:30.028Z,484
2018-01-02T14:41:51.918Z,468
2018-01-02T14:43:13.351Z,488
2018-01-02T14:44:35.559Z,480
2018-01-02T14:45:57.629Z,548
2018-01-02T14:47:19.958Z,600
2018-01-02T14:48:41.818Z,556
2018-01-02T14:50:03.784Z,488
2018-01-02T14:51:25.914Z,448
2018-01-02T14:52:47.524Z,440
2018-01-02T14:54:09.666Z,440
2018-01-02T14:55:31.575Z,428
2018-01-02T14:56:53.473Z,416
2018-01-02T14:58:15.190Z,392
2018-01-02T14:59:37.315Z,356
2018-01-02T15:00:59.497Z,312
2018-01-02T15:02:21.480Z,280
2018-01-02T15:03:43.108Z,272
2018-01-02T15:05:04.520Z,268
2018-01-02T15:06:26.535Z,248
2018-01-02T15:07:48.405Z,228
2018-01-02T15:09:10.530Z,204
2018-01-02T15:10:31.629Z,184
2018-01-02T15:11:53.794Z,184
2018-01-02T15:13:15.658Z,192
2018-01-02T15:14:37.796Z,180
2018-01-02T15:15:59.960Z,164
2018-01-02T15:17:22.228Z,144
2018-01-02T15:18:43.895Z,124
2018-01-02T15:20:05.546Z,100
2018-01-02T15:21:27.465Z,92
2018-01-02T15:22:49.624Z,88
2018-01-02T15:24:11.486Z,88
2018-01-02T15:25:33.375Z,88
2018-01-02T15:26:55.524Z,88
2018-01-02T15:28:16.856Z,84
2018-01-02T15:29:38.815Z,72
2018-01-02T15:31:00.235Z,60
2018-01-02T15:32:22.481Z,52
2018-01-02T15:33:44.356Z,44
2018-01-02T15:35:06.407Z,40
2018-01-02T15:36:27.777Z,32
2018-01-02T15:37:49.797Z,28
2018-01-02T15:39:11.436Z,24
2018-01-02T15:40:33.057Z,16
2018-01-02T15:41:55.269Z,16
2018-01-02T15:43:16.948Z,12
2018-01-02T15:44:39.024Z,12
2018-01-02T15:46:00.902Z,8
2018-01-02T15:47:23.169Z,4
2018-01-02T15:48:45.295Z,4
2018-01-02T15:50:07.255Z,0
2018-01-02T15:51:29.113Z,4
2018-01-02T15:52:51.134Z,0
2018-01-02T15:54:12.234Z,0
2018-01-02T15:55:34.393Z,0
2018-01-02T15:56:56.272Z,0
2018-01-02T15:58:18.305Z,0
2018-01-02T15:59:40.262Z,0
2018-01-02T16:01:02.418Z,0
2018-01-02T16:02:24.450Z,0
2018-01-02T16:03:46.936Z,0
2018-01-02T16:05:09.172Z,0
2018-01-02T16:06:31.435Z,0
2018-01-02T16:07:53.311Z,0
2018-01-02T16:09:16.157Z,0
2018-01-02T16:10:38.043Z,0
2018-01-02T16:11:59.679Z,0
2018-01-02T16:13:21.983Z,0
2018-01-02T16:14:43.877Z,0
2018-01-02T16:16:06.123Z,0
2018-01-02T16:17:27.991Z,0
2018-01-02T16:18:49.352Z,0
2018-01-02T16:20:11.223Z,0
2018-01-02T16:21:33.093Z,0
2018-01-02T16:22:55.073Z,0
2018-01-02T16:24:16.984Z,0
2018-01-02T16:25:39.202Z,0
2018-01-02T16:27:00.848Z,0
2018-01-02T16:28:23.196Z,0
2018-01-02T16:29:45.430Z,0
2018-01-02T16:31:07.687Z,0
2018-01-02T16:32:29.941Z,0
2018-01-02T16:33:52.087Z,0
2018-01-02T16:35:14.375Z,0
2018-01-02T16:36:36.550Z,0
2018-01-02T16:37:58.575Z,0
2018-01-02T16:39:19.985Z,0
2018-01-02T16:40:42.261Z,0
2018-01-02T16:42:04.512Z,0
2018-01-02T16:43:26.823Z,0
2018-01-02T16:44:48.454Z,0
2018-01-02T16:46:10.091Z,0
2018-01-02T16:47:32.107Z,0
2018-01-02T16:48:54.037Z,0
2018-01-02T16:50:16.191Z,0
2018-01-02T16:51:38.157Z,0
2018-01-02T16:53:00.295Z,0
2018-01-02T16:54:22.214Z,0
2018-01-02T16:55:43.834Z,0
2018-01-02T16:57:05.741Z,0
2018-01-02T16:58:27.365Z,0
2018-01-02T16:59:49.596Z,0
2018-01-02T17:01:11.731Z,0
2018-01-02T17:02:33.366Z,0
2018-01-02T17:03:55.281Z,0
2018-01-02T17:05:17.206Z,0
2018-01-02T17:06:39.103Z,0
2018-01-02T17:08:01.006Z,0
2018-01-02T17:09:22.906Z,0
2018-01-02T17:10:45.151Z,0
2018-01-02T17:12:07.023Z,0
2018-01-02T17:13:29.368Z,0
2018-01-02T17:14:51.504Z,0
2018-01-02T17:16:13.663Z,0
2018-01-02T17:17:35.874Z,0
2018-01-02T17:18:57.784Z,0
2018-01-02T17:20:19.984Z,0
2018-01-02T17:21:42.335Z,0
2018-01-02T17:23:04.248Z,0
2018-01-02T17:24:26.467Z,0
2018-01-02T17:25:48.659Z,0
2018-01-02T17:27:10.563Z,0
2018-01-02T17:28:32.243Z,0
2018-01-02T17:29:54.167Z,0
2018-01-02T17:31:16.327Z,0
2018-01-02T17:32:38.498Z,0
2018-01-02T17:34:00.414Z,0
2018-01-02T17:35:22.626Z,0
2018-01-02T17:36:44.810Z,0
2018-01-02T17:38:07.115Z,0
2018-01-02T17:39:28.744Z,0
2018-01-02T17:40:50.896Z,0
2018-01-02T17:42:13.048Z,0
2018-01-02T17:43:35.022Z,0
2018-01-02T17:44:56.872Z,0
2018-01-02T17:46:19.124Z,0
2018-01-02T17:47:41.275Z,0
2018-01-02T17:49:03.706Z,0
2018-01-02T17:50:25.621Z,0
2018-01-02T17:51:47.232Z,0
2018-01-02T17:53:09.420Z,0
2018-01-02T17:54:31.555Z,0
2018-01-02T17:55:52.891Z,0
2018-01-02T17:57:14.783Z,0
2018-01-02T17:58:37.070Z,0
2018-01-02T17:59:58.950Z,0
2018-01-02T18:01:20.860Z,0
2018-01-02T18:02:43.219Z,0
2018-01-02T18:04:05.118Z,0
2018-01-02T18:05:27.015Z,0
2018-01-02T18:06:49.400Z,0
2018-01-02T18:08:11.277Z,0
2018-01-02T18:09:32.907Z,0
2018-01-02T18:10:55.073Z,0
2018-01-02T18:12:16.974Z,0
2018-01-02T18:13:39.137Z,0
2018-01-02T18:15:01.035Z,0
2018-01-02T18:16:22.926Z,0
2018-01-02T18:17:45.105Z,0
2018-01-02T18:19:07.019Z,0
2018-01-02T18:20:29.006Z,0
2018-01-02T18:21:50.898Z,0
2018-01-02T18:23:12.513Z,0
2018-01-02T18:24:34.720Z,0
2018-01-02T18:25:56.366Z,0
2018-01-02T18:27:18.002Z,0
2018-01-02T18:28:40.052Z,0
2018-01-02T18:30:02.203Z,0
2018-01-02T18:31:24.098Z,0
2018-01-02T18:32:46.183Z,0
2018-01-02T18:34:08.375Z,0
2018-01-02T18:35:30.520Z,0
2018-01-02T18:36:52.709Z,0
2018-01-02T18:38:14.660Z,0
2018-01-02T18:39:36.817Z,0
2018-01-02T18:40:58.950Z,0
2018-01-02T18:42:21.093Z,0
2018-01-02T18:43:43.280Z,0
2018-01-02T18:45:05.473Z,0
2018-01-02T18:46:27.828Z,0
2018-01-02T18:47:50.054Z,0
2018-01-02T18:49:12.191Z,0
2018-01-02T18:50:34.349Z,0
2018-01-02T18:51:56.620Z,0
2018-01-02T18:53:19.028Z,0
2018-01-02T18:54:41.175Z,0
2018-01-02T18:56:03.077Z,0
2018-01-02T18:57:25.321Z,0
2018-01-02T18:58:47.265Z,0
2018-01-02T19:00:09.139Z,0
2018-01-02T19:01:31.456Z,0
2018-01-02T19:02:52.838Z,0
2018-01-02T19:04:14.773Z,0
2018-01-02T19:05:36.950Z,0
2018-01-02T19:06:58.830Z,0
2018-01-02T19:08:21.141Z,0
2018-01-02T19:09:43.357Z,0
2018-01-02T19:11:05.408Z,0
2018-01-02T19:12:27.599Z,0
2018-01-02T19:13:50.097Z,0
2018-01-02T19:15:12.277Z,0
2018-01-02T19:16:34.201Z,0
2018-01-02T19:17:56.364Z,0
2018-01-02T19:19:18.691Z,0
2018-01-02T19:20:40.619Z,0